Aérodrome :
LOGIN :

S'inscrire | Disclaimer

   EN    FR    IT 

 










Légende :    VFR   VFR Marginal   IFR   IFR Intensif   IFR Très Intensif
Visi : 
Plafond : 
>= 8 km
>= 3000ft
5 à 8 km
1000 à 3000 ft
1500m à 5 km
500 à 1000 ft
800 à 1500m
200 à 500 ft
< 800m
< 200 ft
Symboles :   Orages  Brouillard  Fortes neiges  Fortes précipitations  Vent > 20 kt
SIGMETs :   Divers  Orages  Givrage  Turbulence  Onde Orograph.  Cendres Volcan.







- Altitude de l'aérodrome : 276 ft
- Code IATA : RBA


GMME - Rabat

DERNIER METAR :
  • 101630Z 27004KT 5000 NSC 16/12 Q1023 NOSIG

METARs EXPIRÉS :
  • 101600Z 28004KT 250V320 5000 NSC 17/13 Q1023 NOSIG
  • 101530Z 29005KT 5000 FEW016 17/13 Q1023 NOSIG
  • 101500Z 30004KT 250V350 5000 FEW016 17/13 Q1023 NOSIG
  • 101430Z 30004KT 260V350 5000 FEW016 17/13 Q1023 NOSIG

TAF TAF GMME
Valide du 10 à 12h jusqu'au 11 à 18h UTC


101100Z 1012/1118 28011KT 8000 NSC
TEMPO 1018/1107 VRB02KT 3000 BR BKN008
Pas de NOTAMs connus pour ce terrain.



MET'MAP, la Météo Aéronautique d'un coup d'oeil ! - Copyright ORBIFLY Décembre 2007 - Disclaimer

ORBIFLY MET'MAP TEAM :

Programmation & Développement : Alexandra Zaïnal
Conception & Développement : Baudouin d'Aumeries
Co-Programmation & Développement : Marc-Olivier Méhu
Soutien technique & logistique : Manuel Goepfert

Contact : metmap@orbifly.com




SOURCES & CREDITS :

   NOAA